Main page
METAR-TAF:

METAR-TAF

Airports :

Yerevan, Armenia

Zvartnots International Airport

latitude: 40-08-50N, longitude: 044-23-45E, elevation: 865 m

Current weather observation

The report was made 22 minutes ago, at 07:00 UTC
Wind 4 kt from the South, varying between Southeast and Southwest
Temperature 29°C
Humidity 40%
Pressure 1015 hPa
Visibility 10 km or more

METAR: UDYZ 190700Z 17004KT 130V220 9999 NSC 29/14 Q1015 R09/000070 NOSIG

Time: 11:22 (07:22 UTC)

Forecast

The report was made 2 hours and 5 minutes ago, at 05:17 UTC
Forecast valid from 19 at 06 UTC to 20 at 06 UTC
Wind 6 kt from the South
Visibility 10 km or more
no clouds below 1500 m and no cumulonimbus
Temporary
from 19 at 12 UTC to 19 at 22 UTC
Wind 16 kt from variable directions with gusts up to 26 kt
Scattered clouds at a height of 4000 ft, Cumulonimbus.

TAF: UDYZ 190517Z 1906/2006 18006KT CAVOK TEMPO 1912/1922 VRB16G26KT SCT040CB

Weather observations and forecasts of more than 4000 airports (METAR and TAF reports).

The available stations are represented by yellow and red dots on the map.

Hover mouse over dot to see the name of the station.

Then click to see weather observations and forecasts.

To change the map : click on the green buttons with a black cross to zoom in, on the green button with a dash to zoom out, or on the green arrows for adjacent maps.


METAR-TAF: